sensor_id;sensor_type;location;lat;lon;timestamp;pressure;altitude;pressure_sealevel;temperature;humidity
45129;BME280;35512;56.312;101.728;2022-08-14T00:00:43;95451.94;;;13.75;63.11
45129;BME280;35512;56.312;101.728;2022-08-14T00:03:22;95457.84;;;14.00;62.70
45129;BME280;35512;56.312;101.728;2022-08-14T00:05:59;95462.16;;;14.25;62.12
45129;BME280;35512;56.312;101.728;2022-08-14T00:08:48;95455.63;;;14.46;61.90
45129;BME280;35512;56.312;101.728;2022-08-14T00:11:17;95463.16;;;14.62;62.06
45129;BME280;35512;56.312;101.728;2022-08-14T00:13:47;95457.53;;;14.77;61.54
45129;BME280;35512;56.312;101.728;2022-08-14T00:16:19;95450.63;;;14.96;61.57
45129;BME280;35512;56.312;101.728;2022-08-14T00:19:09;95452.66;;;15.12;61.18
45129;BME280;35512;56.312;101.728;2022-08-14T00:21:49;95459.91;;;15.18;60.99
45129;BME280;35512;56.312;101.728;2022-08-14T00:24:20;95448.88;;;15.06;61.12
45129;BME280;35512;56.312;101.728;2022-08-14T00:26:56;95451.22;;;14.83;61.20
45129;BME280;35512;56.312;101.728;2022-08-14T00:29:30;95450.72;;;14.65;61.72
45129;BME280;35512;56.312;101.728;2022-08-14T00:32:07;95439.28;;;14.50;61.41
45129;BME280;35512;56.312;101.728;2022-08-14T00:34:56;95444.03;;;14.42;61.77
45129;BME280;35512;56.312;101.728;2022-08-14T00:37:31;95447.88;;;14.45;61.90
45129;BME280;35512;56.312;101.728;2022-08-14T00:40:03;95450.81;;;14.58;61.88
45129;BME280;35512;56.312;101.728;2022-08-14T00:42:53;95449.63;;;14.59;61.79
45129;BME280;35512;56.312;101.728;2022-08-14T00:45:23;95450.81;;;14.58;61.85
45129;BME280;35512;56.312;101.728;2022-08-14T00:47:57;95463.84;;;14.70;61.88
45129;BME280;35512;56.312;101.728;2022-08-14T00:50:27;95452.44;;;14.79;61.65
45129;BME280;35512;56.312;101.728;2022-08-14T00:52:59;95454.16;;;14.93;61.61
45129;BME280;35512;56.312;101.728;2022-08-14T00:55:28;95463.31;;;15.02;61.46
45129;BME280;35512;56.312;101.728;2022-08-14T00:58:03;95460.75;;;15.15;61.09
45129;BME280;35512;56.312;101.728;2022-08-14T01:01:03;95460.19;;;15.48;60.95
45129;BME280;35512;56.312;101.728;2022-08-14T01:03:34;95466.88;;;16.03;60.37
45129;BME280;35512;56.312;101.728;2022-08-14T01:06:11;95458.72;;;16.56;60.00
45129;BME280;35512;56.312;101.728;2022-08-14T01:08:43;95457.94;;;17.05;59.19
45129;BME280;35512;56.312;101.728;2022-08-14T01:11:26;95461.09;;;17.50;58.66
45129;BME280;35512;56.312;101.728;2022-08-14T01:14:02;95463.72;;;17.83;58.34
45129;BME280;35512;56.312;101.728;2022-08-14T01:16:52;95458.75;;;18.07;57.62
45129;BME280;35512;56.312;101.728;2022-08-14T01:19:23;95457.03;;;18.39;57.69
45129;BME280;35512;56.312;101.728;2022-08-14T01:22:13;95468.91;;;18.84;57.12
45129;BME280;35512;56.312;101.728;2022-08-14T01:24:46;95474.88;;;19.30;56.71
45129;BME280;35512;56.312;101.728;2022-08-14T01:27:20;95461.63;;;19.86;56.02
45129;BME280;35512;56.312;101.728;2022-08-14T01:29:54;95458.19;;;21.17;54.27
45129;BME280;35512;56.312;101.728;2022-08-14T01:32:32;95458.56;;;22.69;52.55
45129;BME280;35512;56.312;101.728;2022-08-14T01:35:05;95462.09;;;22.94;51.49
45129;BME280;35512;56.312;101.728;2022-08-14T01:37:56;95451.09;;;22.60;52.02
45129;BME280;35512;56.312;101.728;2022-08-14T01:40:27;95453.09;;;22.08;52.54
45129;BME280;35512;56.312;101.728;2022-08-14T01:43:13;95458.81;;;22.81;53.35
45129;BME280;35512;56.312;101.728;2022-08-14T01:45:49;95452.78;;;24.24;52.22
45129;BME280;35512;56.312;101.728;2022-08-14T01:48:33;95451.50;;;25.67;50.51
45129;BME280;35512;56.312;101.728;2022-08-14T01:51:05;95446.28;;;26.97;48.57
45129;BME280;35512;56.312;101.728;2022-08-14T01:53:56;95460.56;;;28.16;47.14
45129;BME280;35512;56.312;101.728;2022-08-14T01:56:29;95455.66;;;29.18;46.41
45129;BME280;35512;56.312;101.728;2022-08-14T01:59:19;95460.25;;;30.16;44.87
45129;BME280;35512;56.312;101.728;2022-08-14T02:01:50;95451.97;;;30.72;43.96
45129;BME280;35512;56.312;101.728;2022-08-14T02:04:32;95448.09;;;30.56;43.30
45129;BME280;35512;56.312;101.728;2022-08-14T02:07:21;95454.94;;;30.55;42.01
45129;BME280;35512;56.312;101.728;2022-08-14T02:10:11;95452.44;;;31.06;41.30
45129;BME280;35512;56.312;101.728;2022-08-14T02:12:44;95452.09;;;31.59;40.40
45129;BME280;35512;56.312;101.728;2022-08-14T02:15:24;95460.56;;;32.24;39.36
45129;BME280;35512;56.312;101.728;2022-08-14T02:17:53;95449.66;;;32.99;38.41
45129;BME280;35512;56.312;101.728;2022-08-14T02:20:23;95454.38;;;33.58;37.20
45129;BME280;35512;56.312;101.728;2022-08-14T02:22:52;95454.09;;;33.96;35.81
45129;BME280;35512;56.312;101.728;2022-08-14T02:25:22;95454.25;;;34.11;35.85
45129;BME280;35512;56.312;101.728;2022-08-14T02:27:56;95456.38;;;34.32;35.38
45129;BME280;35512;56.312;101.728;2022-08-14T02:30:45;95465.34;;;34.80;34.21
45129;BME280;35512;56.312;101.728;2022-08-14T02:33:19;95457.91;;;34.83;33.79
45129;BME280;35512;56.312;101.728;2022-08-14T02:35:50;95463.66;;;34.77;33.41
45129;BME280;35512;56.312;101.728;2022-08-14T02:38:32;95450.13;;;34.68;32.68
45129;BME280;35512;56.312;101.728;2022-08-14T02:41:03;95442.97;;;34.59;32.37
45129;BME280;35512;56.312;101.728;2022-08-14T02:43:38;95434.31;;;33.94;32.50
45129;BME280;35512;56.312;101.728;2022-08-14T02:46:15;95432.13;;;33.39;31.83
45129;BME280;35512;56.312;101.728;2022-08-14T02:48:51;95433.13;;;33.28;33.68
45129;BME280;35512;56.312;101.728;2022-08-14T02:51:33;95428.03;;;34.01;32.42
45129;BME280;35512;56.312;101.728;2022-08-14T02:54:09;95439.38;;;34.59;31.41
45129;BME280;35512;56.312;101.728;2022-08-14T02:56:40;95432.66;;;35.12;30.80
45129;BME280;35512;56.312;101.728;2022-08-14T02:59:30;95433.31;;;35.62;30.76
45129;BME280;35512;56.312;101.728;2022-08-14T03:02:01;95440.00;;;36.03;30.53
45129;BME280;35512;56.312;101.728;2022-08-14T03:04:32;95440.84;;;36.50;29.42
45129;BME280;35512;56.312;101.728;2022-08-14T03:07:01;95429.59;;;36.50;28.93
45129;BME280;35512;56.312;101.728;2022-08-14T03:09:38;95432.59;;;36.45;28.49
45129;BME280;35512;56.312;101.728;2022-08-14T03:12:27;95436.34;;;36.40;27.72
45129;BME280;35512;56.312;101.728;2022-08-14T03:15:01;95427.28;;;36.02;27.78
45129;BME280;35512;56.312;101.728;2022-08-14T03:17:43;95421.47;;;36.08;27.60
45129;BME280;35512;56.312;101.728;2022-08-14T03:20:28;95419.22;;;35.99;27.48
45129;BME280;35512;56.312;101.728;2022-08-14T03:22:58;95414.75;;;36.19;27.64
45129;BME280;35512;56.312;101.728;2022-08-14T03:25:32;95414.41;;;36.61;27.40
45129;BME280;35512;56.312;101.728;2022-08-14T03:28:06;95423.75;;;37.02;26.28
45129;BME280;35512;56.312;101.728;2022-08-14T03:30:56;95422.28;;;36.94;25.56
45129;BME280;35512;56.312;101.728;2022-08-14T03:33:28;95417.19;;;36.69;24.91
45129;BME280;35512;56.312;101.728;2022-08-14T03:36:11;95422.25;;;36.78;24.85
45129;BME280;35512;56.312;101.728;2022-08-14T03:39:04;95414.59;;;36.48;25.01
45129;BME280;35512;56.312;101.728;2022-08-14T03:41:45;95423.56;;;36.77;25.11
45129;BME280;35512;56.312;101.728;2022-08-14T03:44:15;95419.56;;;37.27;24.75
45129;BME280;35512;56.312;101.728;2022-08-14T03:47:05;95407.13;;;37.45;24.18
45129;BME280;35512;56.312;101.728;2022-08-14T03:49:35;95407.63;;;37.59;23.75
45129;BME280;35512;56.312;101.728;2022-08-14T03:52:09;95403.84;;;38.05;23.78
45129;BME280;35512;56.312;101.728;2022-08-14T03:54:58;95413.38;;;38.85;23.11
45129;BME280;35512;56.312;101.728;2022-08-14T03:57:27;95411.25;;;39.46;22.73
45129;BME280;35512;56.312;101.728;2022-08-14T04:00:07;95416.91;;;39.91;23.08
45129;BME280;35512;56.312;101.728;2022-08-14T04:02:54;95408.88;;;40.52;22.73
45129;BME280;35512;56.312;101.728;2022-08-14T04:05:25;95400.75;;;40.76;22.19
45129;BME280;35512;56.312;101.728;2022-08-14T04:07:54;95406.69;;;40.70;22.24
45129;BME280;35512;56.312;101.728;2022-08-14T04:10:43;95400.44;;;40.25;21.26
45129;BME280;35512;56.312;101.728;2022-08-14T04:13:14;95403.25;;;39.52;20.81
45129;BME280;35512;56.312;101.728;2022-08-14T04:15:50;95399.97;;;39.64;20.79
45129;BME280;35512;56.312;101.728;2022-08-14T04:18:27;95402.94;;;39.13;20.91
45129;BME280;35512;56.312;101.728;2022-08-14T04:21:00;95391.88;;;37.97;21.13
45129;BME280;35512;56.312;101.728;2022-08-14T04:23:31;95393.28;;;37.32;21.83
45129;BME280;35512;56.312;101.728;2022-08-14T04:26:02;95390.94;;;37.53;21.74
45129;BME280;35512;56.312;101.728;2022-08-14T04:28:36;95392.66;;;38.65;21.23
45129;BME280;35512;56.312;101.728;2022-08-14T04:31:26;95402.03;;;39.46;20.67
45129;BME280;35512;56.312;101.728;2022-08-14T04:34:15;95393.66;;;38.10;21.17
45129;BME280;35512;56.312;101.728;2022-08-14T04:36:54;95389.28;;;36.40;21.83
45129;BME280;35512;56.312;101.728;2022-08-14T04:39:53;95386.69;;;34.57;23.18
45129;BME280;35512;56.312;101.728;2022-08-14T04:42:42;95378.91;;;32.77;23.84
45129;BME280;35512;56.312;101.728;2022-08-14T04:45:29;95378.91;;;31.28;24.75
45129;BME280;35512;56.312;101.728;2022-08-14T04:48:12;95378.25;;;30.73;25.42
45129;BME280;35512;56.312;101.728;2022-08-14T04:51:04;95383.50;;;29.49;26.05
45129;BME280;35512;56.312;101.728;2022-08-14T04:53:35;95382.31;;;28.74;26.94
45129;BME280;35512;56.312;101.728;2022-08-14T04:56:15;95365.44;;;28.27;27.04
45129;BME280;35512;56.312;101.728;2022-08-14T04:59:03;95366.97;;;28.11;28.00
45129;BME280;35512;56.312;101.728;2022-08-14T05:01:39;95362.72;;;29.03;27.74
45129;BME280;35512;56.312;101.728;2022-08-14T05:04:16;95356.97;;;31.19;26.20
45129;BME280;35512;56.312;101.728;2022-08-14T05:06:51;95366.31;;;33.72;24.28
45129;BME280;35512;56.312;101.728;2022-08-14T05:09:23;95358.94;;;35.40;23.54
45129;BME280;35512;56.312;101.728;2022-08-14T05:11:57;95353.47;;;36.02;23.29
45129;BME280;35512;56.312;101.728;2022-08-14T05:14:47;95346.38;;;36.32;21.87
45129;BME280;35512;56.312;101.728;2022-08-14T05:17:23;95341.09;;;36.82;21.56
45129;BME280;35512;56.312;101.728;2022-08-14T05:20:06;95343.13;;;37.86;21.41
45129;BME280;35512;56.312;101.728;2022-08-14T05:22:56;95337.38;;;38.87;20.98
45129;BME280;35512;56.312;101.728;2022-08-14T05:25:28;95339.22;;;39.55;20.15
45129;BME280;35512;56.312;101.728;2022-08-14T05:28:12;95330.69;;;40.00;19.65
45129;BME280;35512;56.312;101.728;2022-08-14T05:30:49;95327.44;;;40.03;18.96
45129;BME280;35512;56.312;101.728;2022-08-14T05:33:20;95323.00;;;39.55;19.63
45129;BME280;35512;56.312;101.728;2022-08-14T05:35:52;95331.13;;;39.24;19.30
45129;BME280;35512;56.312;101.728;2022-08-14T05:38:21;95321.59;;;39.02;19.27
45129;BME280;35512;56.312;101.728;2022-08-14T05:41:18;95327.63;;;39.33;19.58
45129;BME280;35512;56.312;101.728;2022-08-14T05:43:48;95326.72;;;39.13;18.76
45129;BME280;35512;56.312;101.728;2022-08-14T05:46:19;95321.06;;;38.43;19.04
45129;BME280;35512;56.312;101.728;2022-08-14T05:48:55;95310.31;;;38.49;19.09
45129;BME280;35512;56.312;101.728;2022-08-14T05:51:25;95312.44;;;38.59;19.01
45129;BME280;35512;56.312;101.728;2022-08-14T05:53:54;95311.16;;;38.77;19.20
45129;BME280;35512;56.312;101.728;2022-08-14T05:56:36;95312.47;;;39.29;19.50
45129;BME280;35512;56.312;101.728;2022-08-14T05:59:06;95310.09;;;39.89;19.10
45129;BME280;35512;56.312;101.728;2022-08-14T06:01:35;95306.75;;;40.67;18.77
45129;BME280;35512;56.312;101.728;2022-08-14T06:04:04;95306.91;;;41.38;18.94
45129;BME280;35512;56.312;101.728;2022-08-14T06:06:33;95298.47;;;41.69;18.48
45129;BME280;35512;56.312;101.728;2022-08-14T06:09:05;95298.06;;;42.36;18.62
45129;BME280;35512;56.312;101.728;2022-08-14T06:11:36;95295.03;;;43.20;17.92
45129;BME280;35512;56.312;101.728;2022-08-14T06:14:05;95298.34;;;43.50;17.50
45129;BME280;35512;56.312;101.728;2022-08-14T06:16:48;95297.38;;;43.12;17.13
45129;BME280;35512;56.312;101.728;2022-08-14T06:19:20;95284.94;;;41.99;17.76
45129;BME280;35512;56.312;101.728;2022-08-14T06:21:50;95295.84;;;39.33;18.69
45129;BME280;35512;56.312;101.728;2022-08-14T06:24:27;95285.28;;;36.48;20.55
45129;BME280;35512;56.312;101.728;2022-08-14T06:27:03;95284.34;;;34.35;22.02
45129;BME280;35512;56.312;101.728;2022-08-14T06:29:37;95287.44;;;32.51;22.69
45129;BME280;35512;56.312;101.728;2022-08-14T06:32:07;95284.06;;;30.90;23.72
45129;BME280;35512;56.312;101.728;2022-08-14T06:34:56;95273.16;;;29.68;24.68
45129;BME280;35512;56.312;101.728;2022-08-14T06:37:45;95276.31;;;29.06;25.45
45129;BME280;35512;56.312;101.728;2022-08-14T06:40:26;95278.38;;;28.30;26.05
45129;BME280;35512;56.312;101.728;2022-08-14T06:43:03;95272.13;;;27.67;26.64
45129;BME280;35512;56.312;101.728;2022-08-14T06:45:36;95262.75;;;27.13;27.16
45129;BME280;35512;56.312;101.728;2022-08-14T06:50:45;95258.03;;;26.10;28.67
45129;BME280;35512;56.312;101.728;2022-08-14T06:53:15;95264.63;;;25.81;29.10
45129;BME280;35512;56.312;101.728;2022-08-14T06:55:47;95257.56;;;25.48;29.39
45129;BME280;35512;56.312;101.728;2022-08-14T06:58:28;95249.69;;;25.09;29.73
45129;BME280;35512;56.312;101.728;2022-08-14T07:00:59;95252.44;;;24.62;30.54
45129;BME280;35512;56.312;101.728;2022-08-14T07:03:55;95245.78;;;24.12;31.17
45129;BME280;35512;56.312;101.728;2022-08-14T07:06:54;95243.75;;;23.77;31.56
45129;BME280;35512;56.312;101.728;2022-08-14T07:09:26;95240.19;;;23.56;32.13
45129;BME280;35512;56.312;101.728;2022-08-14T07:12:11;95247.72;;;23.26;32.24
45129;BME280;35512;56.312;101.728;2022-08-14T07:15:01;95238.66;;;22.95;32.69
45129;BME280;35512;56.312;101.728;2022-08-14T07:17:31;95212.53;;;22.61;32.83
45129;BME280;35512;56.312;101.728;2022-08-14T07:20:04;95227.97;;;22.58;33.40
45129;BME280;35512;56.312;101.728;2022-08-14T07:22:34;95217.50;;;22.48;33.65
45129;BME280;35512;56.312;101.728;2022-08-14T07:25:26;95223.22;;;22.59;33.55
45129;BME280;35512;56.312;101.728;2022-08-14T07:27:59;95229.31;;;22.63;33.20
45129;BME280;35512;56.312;101.728;2022-08-14T07:30:29;95230.66;;;22.68;33.54
45129;BME280;35512;56.312;101.728;2022-08-14T07:33:02;95226.84;;;22.65;33.62
45129;BME280;35512;56.312;101.728;2022-08-14T07:35:32;95225.22;;;22.58;33.97
45129;BME280;35512;56.312;101.728;2022-08-14T07:38:22;95221.59;;;22.52;34.32
45129;BME280;35512;56.312;101.728;2022-08-14T07:40:51;95216.19;;;22.43;34.37
45129;BME280;35512;56.312;101.728;2022-08-14T07:43:20;95217.91;;;22.31;34.63
45129;BME280;35512;56.312;101.728;2022-08-14T07:45:50;95214.00;;;22.23;34.69
45129;BME280;35512;56.312;101.728;2022-08-14T07:48:21;95205.34;;;22.15;34.95
45129;BME280;35512;56.312;101.728;2022-08-14T07:50:52;95204.75;;;22.11;35.10
45129;BME280;35512;56.312;101.728;2022-08-14T07:53:39;95200.38;;;22.04;35.23
45129;BME280;35512;56.312;101.728;2022-08-14T07:56:08;95210.09;;;22.15;35.41
45129;BME280;35512;56.312;101.728;2022-08-14T07:58:59;95211.84;;;22.27;35.47
45129;BME280;35512;56.312;101.728;2022-08-14T08:01:29;95206.91;;;22.31;35.50
45129;BME280;35512;56.312;101.728;2022-08-14T08:04:02;95207.16;;;22.42;35.39
45129;BME280;35512;56.312;101.728;2022-08-14T08:06:43;95206.63;;;22.53;35.14
45129;BME280;35512;56.312;101.728;2022-08-14T08:09:12;95206.38;;;22.66;35.07
45129;BME280;35512;56.312;101.728;2022-08-14T08:11:42;95212.03;;;22.62;35.16
45129;BME280;35512;56.312;101.728;2022-08-14T08:14:21;95218.00;;;22.46;35.19
45129;BME280;35512;56.312;101.728;2022-08-14T08:16:50;95208.66;;;22.19;35.83
45129;BME280;35512;56.312;101.728;2022-08-14T08:19:19;95207.16;;;21.94;36.06
45129;BME280;35512;56.312;101.728;2022-08-14T08:21:48;95209.22;;;21.84;36.55
45129;BME280;35512;56.312;101.728;2022-08-14T08:24:19;95196.72;;;21.74;36.74
45129;BME280;35512;56.312;101.728;2022-08-14T08:26:48;95209.88;;;21.70;37.00
45129;BME280;35512;56.312;101.728;2022-08-14T08:29:19;95209.63;;;21.58;37.14
45129;BME280;35512;56.312;101.728;2022-08-14T08:31:55;95215.28;;;21.55;37.53
45129;BME280;35512;56.312;101.728;2022-08-14T08:34:45;95207.84;;;21.46;38.01
45129;BME280;35512;56.312;101.728;2022-08-14T08:37:16;95208.47;;;21.41;38.41
45129;BME280;35512;56.312;101.728;2022-08-14T08:39:46;95210.13;;;21.38;38.68
45129;BME280;35512;56.312;101.728;2022-08-14T08:42:31;95208.78;;;21.34;38.93
45129;BME280;35512;56.312;101.728;2022-08-14T08:45:20;95206.66;;;21.28;39.13
45129;BME280;35512;56.312;101.728;2022-08-14T08:47:54;95209.44;;;21.19;39.21
45129;BME280;35512;56.312;101.728;2022-08-14T08:50:27;95199.56;;;21.03;39.45
45129;BME280;35512;56.312;101.728;2022-08-14T08:53:01;95214.38;;;20.97;39.80
45129;BME280;35512;56.312;101.728;2022-08-14T08:55:36;95211.47;;;20.91;39.87
45129;BME280;35512;56.312;101.728;2022-08-14T08:58:09;95209.34;;;20.86;40.27
45129;BME280;35512;56.312;101.728;2022-08-14T09:00:54;95206.00;;;20.82;40.31
45129;BME280;35512;56.312;101.728;2022-08-14T09:03:27;95211.53;;;20.72;40.64
45129;BME280;35512;56.312;101.728;2022-08-14T09:06:00;95211.78;;;20.65;41.00
45129;BME280;35512;56.312;101.728;2022-08-14T09:08:51;95203.25;;;20.63;40.94
45129;BME280;35512;56.312;101.728;2022-08-14T09:11:23;95194.56;;;20.65;41.31
45129;BME280;35512;56.312;101.728;2022-08-14T09:13:53;95193.19;;;20.60;41.23
45129;BME280;35512;56.312;101.728;2022-08-14T09:16:23;95199.00;;;20.53;42.04
45129;BME280;35512;56.312;101.728;2022-08-14T09:18:53;95197.50;;;20.42;42.16
45129;BME280;35512;56.312;101.728;2022-08-14T09:21:22;95207.69;;;20.42;42.33
45129;BME280;35512;56.312;101.728;2022-08-14T09:23:59;95202.78;;;20.37;43.07
45129;BME280;35512;56.312;101.728;2022-08-14T09:26:48;95199.16;;;20.21;44.00
45129;BME280;35512;56.312;101.728;2022-08-14T09:29:18;95205.06;;;20.10;44.16
45129;BME280;35512;56.312;101.728;2022-08-14T09:31:53;95210.41;;;20.05;44.46
45129;BME280;35512;56.312;101.728;2022-08-14T09:40:07;95215.28;;;20.10;45.32
45129;BME280;35512;56.312;101.728;2022-08-14T09:43:01;95206.59;;;20.12;46.30
45129;BME280;35512;56.312;101.728;2022-08-14T09:45:46;95207.78;;;19.92;46.61
45129;BME280;35512;56.312;101.728;2022-08-14T09:48:21;95202.41;;;19.79;47.15
45129;BME280;35512;56.312;101.728;2022-08-14T09:50:59;95206.94;;;19.64;47.39
45129;BME280;35512;56.312;101.728;2022-08-14T09:53:43;95196.84;;;19.51;48.24
45129;BME280;35512;56.312;101.728;2022-08-14T09:56:50;95191.00;;;19.40;48.99
45129;BME280;35512;56.312;101.728;2022-08-14T09:59:26;95199.28;;;19.18;50.10
45129;BME280;35512;56.312;101.728;2022-08-14T10:02:03;95205.31;;;19.03;52.05
45129;BME280;35512;56.312;101.728;2022-08-14T10:04:36;95203.09;;;18.89;53.29
45129;BME280;35512;56.312;101.728;2022-08-14T10:07:16;95204.00;;;18.73;53.73
45129;BME280;35512;56.312;101.728;2022-08-14T10:09:47;95192.00;;;18.70;52.99
45129;BME280;35512;56.312;101.728;2022-08-14T10:12:47;95192.00;;;18.70;53.34
45129;BME280;35512;56.312;101.728;2022-08-14T10:15:22;95189.84;;;18.65;53.28
45129;BME280;35512;56.312;101.728;2022-08-14T10:18:10;95190.91;;;18.68;54.06
45129;BME280;35512;56.312;101.728;2022-08-14T10:20:52;95195.44;;;18.62;54.33
45129;BME280;35512;56.312;101.728;2022-08-14T10:23:24;95199.19;;;18.55;55.73
45129;BME280;35512;56.312;101.728;2022-08-14T10:26:05;95191.69;;;18.46;55.25
45129;BME280;35512;56.312;101.728;2022-08-14T10:28:40;95189.38;;;18.45;55.34
45129;BME280;35512;56.312;101.728;2022-08-14T10:31:32;95188.44;;;18.38;56.20
45129;BME280;35512;56.312;101.728;2022-08-14T10:34:17;95191.28;;;18.35;56.36
45129;BME280;35512;56.312;101.728;2022-08-14T10:37:08;95195.03;;;18.28;57.63
45129;BME280;35512;56.312;101.728;2022-08-14T10:39:44;95200.44;;;18.19;57.72
45129;BME280;35512;56.312;101.728;2022-08-14T10:42:37;95170.16;;;18.13;57.30
45129;BME280;35512;56.312;101.728;2022-08-14T10:45:24;95195.53;;;18.36;57.01
45129;BME280;35512;56.312;101.728;2022-08-14T10:48:13;95185.59;;;18.42;56.63
45129;BME280;35512;56.312;101.728;2022-08-14T10:51:03;95182.22;;;18.38;56.36
45129;BME280;35512;56.312;101.728;2022-08-14T10:53:36;95189.81;;;18.43;56.22
45129;BME280;35512;56.312;101.728;2022-08-14T10:56:10;95188.63;;;18.44;56.39
45129;BME280;35512;56.312;101.728;2022-08-14T10:59:02;95178.59;;;18.41;56.34
45129;BME280;35512;56.312;101.728;2022-08-14T11:01:37;95179.78;;;18.40;56.58
45129;BME280;35512;56.312;101.728;2022-08-14T11:04:22;95175.41;;;18.42;55.59
45129;BME280;35512;56.312;101.728;2022-08-14T11:06:54;95176.41;;;18.36;55.92
45129;BME280;35512;56.312;101.728;2022-08-14T11:09:24;95181.13;;;18.35;55.88
45129;BME280;35512;56.312;101.728;2022-08-14T11:11:59;95180.97;;;18.39;55.80
45129;BME280;35512;56.312;101.728;2022-08-14T11:14:57;95187.78;;;18.34;55.68
45129;BME280;35512;56.312;101.728;2022-08-14T11:17:31;95189.00;;;18.33;55.60
45129;BME280;35512;56.312;101.728;2022-08-14T11:20:03;95189.56;;;18.28;55.68
45129;BME280;35512;56.312;101.728;2022-08-14T11:22:33;95199.84;;;18.24;55.68
45129;BME280;35512;56.312;101.728;2022-08-14T11:25:24;95207.72;;;18.22;56.19
45129;BME280;35512;56.312;101.728;2022-08-14T11:28:12;95204.28;;;18.08;56.13
45129;BME280;35512;56.312;101.728;2022-08-14T11:30:48;95210.28;;;18.03;56.36
45129;BME280;35512;56.312;101.728;2022-08-14T11:33:25;95203.72;;;18.01;56.16
45129;BME280;35512;56.312;101.728;2022-08-14T11:36:01;95212.38;;;17.99;56.26
45129;BME280;35512;56.312;101.728;2022-08-14T11:38:45;95202.22;;;18.00;56.01
45129;BME280;35512;56.312;101.728;2022-08-14T11:41:15;95208.88;;;17.99;56.16
45129;BME280;35512;56.312;101.728;2022-08-14T11:43:46;95202.63;;;17.98;55.82
45129;BME280;35512;56.312;101.728;2022-08-14T11:46:26;95207.25;;;18.01;55.78
45129;BME280;35512;56.312;101.728;2022-08-14T11:49:04;95216.19;;;18.02;55.69
45129;BME280;35512;56.312;101.728;2022-08-14T11:51:34;95210.28;;;18.03;55.73
45129;BME280;35512;56.312;101.728;2022-08-14T11:54:21;95216.41;;;18.07;55.30
45129;BME280;35512;56.312;101.728;2022-08-14T11:57:02;95211.25;;;18.10;55.12
45129;BME280;35512;56.312;101.728;2022-08-14T11:59:32;95209.28;;;18.10;55.35
45129;BME280;35512;56.312;101.728;2022-08-14T12:02:15;95212.47;;;18.08;55.41
45129;BME280;35512;56.312;101.728;2022-08-14T12:05:05;95212.03;;;18.10;55.24
45129;BME280;35512;56.312;101.728;2022-08-14T12:07:47;95203.50;;;18.08;55.70
45129;BME280;35512;56.312;101.728;2022-08-14T12:10:17;95204.28;;;18.08;55.69
45129;BME280;35512;56.312;101.728;2022-08-14T12:13:14;95201.53;;;18.08;55.84
45129;BME280;35512;56.312;101.728;2022-08-14T12:15:46;95192.59;;;18.08;55.88
45129;BME280;35512;56.312;101.728;2022-08-14T12:18:29;95190.31;;;18.06;55.90
45129;BME280;35512;56.312;101.728;2022-08-14T12:21:16;95198.34;;;18.10;55.60
45129;BME280;35512;56.312;101.728;2022-08-14T12:24:04;95199.44;;;18.13;55.79
45129;BME280;35512;56.312;101.728;2022-08-14T12:26:35;95205.66;;;18.13;55.67
45129;BME280;35512;56.312;101.728;2022-08-14T12:29:11;95206.09;;;18.12;55.73
45129;BME280;35512;56.312;101.728;2022-08-14T12:31:41;95207.00;;;18.08;55.98
45129;BME280;35512;56.312;101.728;2022-08-14T12:34:14;95209.41;;;18.06;56.11
45129;BME280;35512;56.312;101.728;2022-08-14T12:37:00;95194.56;;;17.82;56.44
45129;BME280;35512;56.312;101.728;2022-08-14T12:39:33;95207.06;;;17.70;56.66
45129;BME280;35512;56.312;101.728;2022-08-14T12:42:07;95213.06;;;17.52;57.17
45129;BME280;35512;56.312;101.728;2022-08-14T12:44:55;95213.28;;;17.32;57.56
45129;BME280;35512;56.312;101.728;2022-08-14T12:47:31;95205.97;;;17.16;58.00
45129;BME280;35512;56.312;101.728;2022-08-14T12:50:00;95200.91;;;17.01;58.36
45129;BME280;35512;56.312;101.728;2022-08-14T12:55:23;95202.38;;;16.77;58.98
45129;BME280;35512;56.312;101.728;2022-08-14T12:58:12;95208.91;;;16.66;59.21
45129;BME280;35512;56.312;101.728;2022-08-14T13:01:02;95190.97;;;16.52;59.64
45129;BME280;35512;56.312;101.728;2022-08-14T13:03:47;95218.03;;;16.60;59.40
45129;BME280;35512;56.312;101.728;2022-08-14T13:06:19;95209.63;;;16.54;60.05
45129;BME280;35512;56.312;101.728;2022-08-14T13:08:53;95212.59;;;16.60;60.13
45129;BME280;35512;56.312;101.728;2022-08-14T13:11:46;95219.13;;;16.62;60.27
45129;BME280;35512;56.312;101.728;2022-08-14T13:14:37;95217.91;;;16.63;60.30
45129;BME280;35512;56.312;101.728;2022-08-14T13:17:06;95211.72;;;16.63;60.60
45129;BME280;35512;56.312;101.728;2022-08-14T13:19:40;95223.38;;;16.63;60.50
45129;BME280;35512;56.312;101.728;2022-08-14T13:22:14;95214.00;;;16.64;60.85
45129;BME280;35512;56.312;101.728;2022-08-14T13:25:02;95212.47;;;16.63;60.86
45129;BME280;35512;56.312;101.728;2022-08-14T13:27:32;95212.47;;;16.63;60.82
45129;BME280;35512;56.312;101.728;2022-08-14T13:30:08;95210.59;;;16.60;61.08
45129;BME280;35512;56.312;101.728;2022-08-14T13:32:52;95217.25;;;16.59;61.19
45129;BME280;35512;56.312;101.728;2022-08-14T13:35:25;95220.41;;;16.58;61.20
45129;BME280;35512;56.312;101.728;2022-08-14T13:37:56;95213.97;;;16.51;61.74
45129;BME280;35512;56.312;101.728;2022-08-14T13:40:25;95200.94;;;16.43;61.73
45129;BME280;35512;56.312;101.728;2022-08-14T13:42:57;95212.19;;;16.45;61.93
45129;BME280;35512;56.312;101.728;2022-08-14T13:45:26;95211.53;;;16.41;62.06